This is the latest recevied weather packets stored in our database for station/object 9M4RBN-3. If no packets are shown the sender has not sent any weather packets the latest 10 day(s).
| Time | Temp. | Humidity | Pressure | Rain* | Wind** | Luminosity | Snow |
|---|---|---|---|---|---|---|---|
| 1777415785 | 24.44° C | 48% | 1013.9 hPa | - | - | - | - |
| 1777414978 | 24.44° C | 48% | 1013.9 hPa | - | - | - | - |
| 1777414885 | 24.44° C | 48% | 1013.9 hPa | - | - | - | - |
| 1777413985 | 25° C | 49% | 1013.8 hPa | - | - | - | - |
| 1777413085 | 25° C | 49% | 1013.8 hPa | - | - | - | - |
| 1777412185 | 25° C | 50% | 1013.6 hPa | - | - | - | - |
| 1777411347 | 25.56° C | 50% | 1013.4 hPa | - | - | - | - |
| 1777411284 | 25.56° C | 50% | 1013.4 hPa | - | - | - | - |
| 1777410418 | 25.56° C | 51% | 1013.4 hPa | - | - | - | - |
| 1777410384 | 25.56° C | 51% | 1013.4 hPa | - | - | - | - |
| 1777409597 | 25.56° C | 54% | 1013.4 hPa | - | - | - | - |
| 1777409484 | 25.56° C | 54% | 1013.4 hPa | - | - | - | - |
| 1777408662 | 26.11° C | 55% | 1013.3 hPa | - | - | - | - |
| 1777408621 | 26.11° C | 55% | 1013.3 hPa | - | - | - | - |
| 1777408584 | 26.11° C | 55% | 1013.3 hPa | - | - | - | - |
| 1777407715 | 26.67° C | 49% | 1013.4 hPa | - | - | - | - |
| 1777407684 | 26.67° C | 49% | 1013.4 hPa | - | - | - | - |
| 1777406784 | 27.78° C | 58% | 1013.4 hPa | - | - | - | - |
| 1777405884 | 27.78° C | 75% | 1013.3 hPa | - | - | - | - |
| 1777404984 | 27.78° C | 75% | 1013.3 hPa | - | - | - | - |
| 1777404084 | 27.78° C | 75% | 1013.4 hPa | - | - | - | - |
| 1777403184 | 27.22° C | 74% | 1013.4 hPa | - | - | - | - |
| 1777402284 | 26.67° C | 67% | 1013.5 hPa | - | - | - | - |
| 1777401384 | 26.11° C | 45% | 1013.7 hPa | - | - | - | - |
| 1777400484 | 27.22° C | 45% | 1013.8 hPa | - | - | - | - |
* Rain since midnight (hover to see other rain measurements)
** Current wind speed in m/s (hover to see current wind gust speed)